sensor_id;sensor_type;location;lat;lon;timestamp;temperature;humidity
18613;DHT22;9436;52.152;21.032;2022-11-11T00:00:32;8.70;99.90
18613;DHT22;9436;52.152;21.032;2022-11-11T00:03:01;8.70;99.90
18613;DHT22;9436;52.152;21.032;2022-11-11T00:05:29;8.70;99.90
18613;DHT22;9436;52.152;21.032;2022-11-11T00:07:58;8.70;99.90
18613;DHT22;9436;52.152;21.032;2022-11-11T00:10:25;8.70;99.90
18613;DHT22;9436;52.152;21.032;2022-11-11T00:12:52;8.70;99.90
18613;DHT22;9436;52.152;21.032;2022-11-11T00:15:19;8.60;99.90
18613;DHT22;9436;52.152;21.032;2022-11-11T00:17:46;8.50;99.90
18613;DHT22;9436;52.152;21.032;2022-11-11T00:20:32;8.50;99.90
18613;DHT22;9436;52.152;21.032;2022-11-11T00:23:20;8.40;99.90
18613;DHT22;9436;52.152;21.032;2022-11-11T00:26:04;8.40;99.90
18613;DHT22;9436;52.152;21.032;2022-11-11T00:28:31;8.30;99.90
18613;DHT22;9436;52.152;21.032;2022-11-11T00:31:03;8.30;99.90
18613;DHT22;9436;52.152;21.032;2022-11-11T00:33:30;8.30;99.90
18613;DHT22;9436;52.152;21.032;2022-11-11T00:35:58;8.20;99.90
18613;DHT22;9436;52.152;21.032;2022-11-11T00:38:25;8.30;99.90
18613;DHT22;9436;52.152;21.032;2022-11-11T00:41:10;8.30;99.90
18613;DHT22;9436;52.152;21.032;2022-11-11T00:43:37;8.20;99.90
18613;DHT22;9436;52.152;21.032;2022-11-11T00:46:04;8.20;99.90
18613;DHT22;9436;52.152;21.032;2022-11-11T00:48:49;8.10;99.90
18613;DHT22;9436;52.152;21.032;2022-11-11T00:51:35;8.00;99.90
18613;DHT22;9436;52.152;21.032;2022-11-11T00:54:02;8.00;99.90
18613;DHT22;9436;52.152;21.032;2022-11-11T00:56:29;8.00;99.90
18613;DHT22;9436;52.152;21.032;2022-11-11T00:58:56;8.00;99.90
18613;DHT22;9436;52.152;21.032;2022-11-11T01:01:23;8.00;99.90
18613;DHT22;9436;52.152;21.032;2022-11-11T01:03:50;7.90;99.90
18613;DHT22;9436;52.152;21.032;2022-11-11T01:06:17;7.90;99.90
18613;DHT22;9436;52.152;21.032;2022-11-11T01:08:45;7.90;99.90
18613;DHT22;9436;52.152;21.032;2022-11-11T01:11:14;7.90;99.90
18613;DHT22;9436;52.152;21.032;2022-11-11T01:13:42;7.90;99.90
18613;DHT22;9436;52.152;21.032;2022-11-11T01:16:12;7.90;99.90
18613;DHT22;9436;52.152;21.032;2022-11-11T01:18:40;8.00;99.90
18613;DHT22;9436;52.152;21.032;2022-11-11T01:21:09;8.00;99.90
18613;DHT22;9436;52.152;21.032;2022-11-11T01:23:38;8.10;99.90
18613;DHT22;9436;52.152;21.032;2022-11-11T01:26:09;8.10;99.90
18613;DHT22;9436;52.152;21.032;2022-11-11T01:28:37;8.30;99.90
18613;DHT22;9436;52.152;21.032;2022-11-11T01:31:06;8.30;99.90
18613;DHT22;9436;52.152;21.032;2022-11-11T01:33:33;8.40;99.90
18613;DHT22;9436;52.152;21.032;2022-11-11T01:36:05;8.50;99.90
18613;DHT22;9436;52.152;21.032;2022-11-11T01:38:33;8.50;99.90
18613;DHT22;9436;52.152;21.032;2022-11-11T01:41:01;8.60;99.90
18613;DHT22;9436;52.152;21.032;2022-11-11T01:43:50;8.60;99.90
18613;DHT22;9436;52.152;21.032;2022-11-11T01:46:25;8.70;99.90
18613;DHT22;9436;52.152;21.032;2022-11-11T01:48:55;8.70;99.90
18613;DHT22;9436;52.152;21.032;2022-11-11T01:51:44;8.70;99.90
18613;DHT22;9436;52.152;21.032;2022-11-11T01:54:15;8.70;99.90
18613;DHT22;9436;52.152;21.032;2022-11-11T01:56:46;8.80;99.90
18613;DHT22;9436;52.152;21.032;2022-11-11T01:59:16;8.80;99.90
18613;DHT22;9436;52.152;21.032;2022-11-11T02:01:44;8.80;99.90
18613;DHT22;9436;52.152;21.032;2022-11-11T02:04:13;8.90;99.90
18613;DHT22;9436;52.152;21.032;2022-11-11T02:07:01;8.90;99.90
18613;DHT22;9436;52.152;21.032;2022-11-11T02:09:29;8.90;99.90
18613;DHT22;9436;52.152;21.032;2022-11-11T02:11:59;9.00;99.90
18613;DHT22;9436;52.152;21.032;2022-11-11T02:14:51;9.00;99.90
18613;DHT22;9436;52.152;21.032;2022-11-11T02:17:19;9.00;99.90
18613;DHT22;9436;52.152;21.032;2022-11-11T02:19:49;9.10;99.90
18613;DHT22;9436;52.152;21.032;2022-11-11T02:22:27;9.10;99.90
18613;DHT22;9436;52.152;21.032;2022-11-11T02:24:57;9.20;99.90
18613;DHT22;9436;52.152;21.032;2022-11-11T02:27:27;9.20;99.90
18613;DHT22;9436;52.152;21.032;2022-11-11T02:29:57;9.20;99.90
18613;DHT22;9436;52.152;21.032;2022-11-11T02:32:25;9.20;99.90
18613;DHT22;9436;52.152;21.032;2022-11-11T02:34:52;9.10;99.90
18613;DHT22;9436;52.152;21.032;2022-11-11T02:37:22;9.10;99.90
18613;DHT22;9436;52.152;21.032;2022-11-11T02:39:51;9.00;99.90
18613;DHT22;9436;52.152;21.032;2022-11-11T02:42:22;9.00;99.90
18613;DHT22;9436;52.152;21.032;2022-11-11T02:44:50;9.00;99.90
18613;DHT22;9436;52.152;21.032;2022-11-11T02:47:23;9.00;99.90
18613;DHT22;9436;52.152;21.032;2022-11-11T02:49:51;9.00;99.90
18613;DHT22;9436;52.152;21.032;2022-11-11T02:52:19;8.90;99.90
18613;DHT22;9436;52.152;21.032;2022-11-11T02:54:46;8.90;99.90
18613;DHT22;9436;52.152;21.032;2022-11-11T02:57:14;8.90;99.90
18613;DHT22;9436;52.152;21.032;2022-11-11T02:59:43;8.90;99.90
18613;DHT22;9436;52.152;21.032;2022-11-11T03:02:10;8.90;99.90
18613;DHT22;9436;52.152;21.032;2022-11-11T03:04:37;8.80;99.90
18613;DHT22;9436;52.152;21.032;2022-11-11T03:07:04;8.80;99.90
18613;DHT22;9436;52.152;21.032;2022-11-11T03:09:31;8.70;99.90
18613;DHT22;9436;52.152;21.032;2022-11-11T03:11:58;8.70;99.90
18613;DHT22;9436;52.152;21.032;2022-11-11T03:14:25;8.70;99.90
18613;DHT22;9436;52.152;21.032;2022-11-11T03:16:54;8.70;99.90
18613;DHT22;9436;52.152;21.032;2022-11-11T03:19:38;8.60;99.90
18613;DHT22;9436;52.152;21.032;2022-11-11T03:22:05;8.60;99.90
18613;DHT22;9436;52.152;21.032;2022-11-11T03:24:32;8.60;99.90
18613;DHT22;9436;52.152;21.032;2022-11-11T03:27:16;8.50;99.90
18613;DHT22;9436;52.152;21.032;2022-11-11T03:29:43;8.50;99.90
18613;DHT22;9436;52.152;21.032;2022-11-11T03:32:12;8.50;99.90
18613;DHT22;9436;52.152;21.032;2022-11-11T03:34:39;8.50;99.90
18613;DHT22;9436;52.152;21.032;2022-11-11T03:37:07;8.50;99.90
18613;DHT22;9436;52.152;21.032;2022-11-11T03:39:52;8.50;99.90
18613;DHT22;9436;52.152;21.032;2022-11-11T03:42:19;8.50;99.90
18613;DHT22;9436;52.152;21.032;2022-11-11T03:44:46;8.50;99.90
18613;DHT22;9436;52.152;21.032;2022-11-11T03:47:15;8.50;99.90
18613;DHT22;9436;52.152;21.032;2022-11-11T03:49:42;8.50;99.90
18613;DHT22;9436;52.152;21.032;2022-11-11T03:52:11;8.50;99.90
18613;DHT22;9436;52.152;21.032;2022-11-11T03:54:38;8.50;99.90
18613;DHT22;9436;52.152;21.032;2022-11-11T03:57:05;8.60;99.90
18613;DHT22;9436;52.152;21.032;2022-11-11T03:59:49;8.60;99.90
18613;DHT22;9436;52.152;21.032;2022-11-11T04:02:17;8.70;99.90
18613;DHT22;9436;52.152;21.032;2022-11-11T04:05:02;8.60;99.90
18613;DHT22;9436;52.152;21.032;2022-11-11T04:07:46;8.60;99.90
18613;DHT22;9436;52.152;21.032;2022-11-11T04:10:31;8.60;99.90
18613;DHT22;9436;52.152;21.032;2022-11-11T04:12:58;8.70;99.90
18613;DHT22;9436;52.152;21.032;2022-11-11T04:15:43;8.70;99.90
18613;DHT22;9436;52.152;21.032;2022-11-11T04:18:29;8.60;99.90
18613;DHT22;9436;52.152;21.032;2022-11-11T04:21:13;8.60;99.90
18613;DHT22;9436;52.152;21.032;2022-11-11T04:23:57;8.60;99.90
18613;DHT22;9436;52.152;21.032;2022-11-11T04:26:24;8.70;99.90
18613;DHT22;9436;52.152;21.032;2022-11-11T04:28:50;8.70;99.90
18613;DHT22;9436;52.152;21.032;2022-11-11T04:31:35;8.80;99.90
18613;DHT22;9436;52.152;21.032;2022-11-11T04:34:23;8.80;99.90
18613;DHT22;9436;52.152;21.032;2022-11-11T04:36:49;8.70;99.90
18613;DHT22;9436;52.152;21.032;2022-11-11T04:39:16;8.70;99.90
18613;DHT22;9436;52.152;21.032;2022-11-11T04:42:01;8.80;99.90
18613;DHT22;9436;52.152;21.032;2022-11-11T04:44:28;8.80;99.90
18613;DHT22;9436;52.152;21.032;2022-11-11T04:47:12;8.80;99.90
18613;DHT22;9436;52.152;21.032;2022-11-11T04:49:41;8.80;99.90
18613;DHT22;9436;52.152;21.032;2022-11-11T04:52:09;8.70;99.90
18613;DHT22;9436;52.152;21.032;2022-11-11T04:54:55;8.70;99.90
18613;DHT22;9436;52.152;21.032;2022-11-11T04:57:38;8.70;99.90
18613;DHT22;9436;52.152;21.032;2022-11-11T05:00:07;8.70;99.90
18613;DHT22;9436;52.152;21.032;2022-11-11T05:02:34;8.80;99.90
18613;DHT22;9436;52.152;21.032;2022-11-11T05:05:20;8.70;99.90
18613;DHT22;9436;52.152;21.032;2022-11-11T05:07:47;8.70;99.90
18613;DHT22;9436;52.152;21.032;2022-11-11T05:10:31;8.70;99.90
18613;DHT22;9436;52.152;21.032;2022-11-11T05:12:58;8.80;99.90
18613;DHT22;9436;52.152;21.032;2022-11-11T05:15:41;8.80;99.90
18613;DHT22;9436;52.152;21.032;2022-11-11T05:18:25;8.80;99.90
18613;DHT22;9436;52.152;21.032;2022-11-11T05:21:13;8.80;99.90
18613;DHT22;9436;52.152;21.032;2022-11-11T05:23:48;8.90;99.90
18613;DHT22;9436;52.152;21.032;2022-11-11T05:26:32;9.00;99.90
18613;DHT22;9436;52.152;21.032;2022-11-11T05:29:00;9.00;99.90
18613;DHT22;9436;52.152;21.032;2022-11-11T05:31:27;9.10;99.90
18613;DHT22;9436;52.152;21.032;2022-11-11T05:33:54;9.10;99.90
18613;DHT22;9436;52.152;21.032;2022-11-11T05:36:22;9.10;99.90
18613;DHT22;9436;52.152;21.032;2022-11-11T05:38:49;9.20;99.90
18613;DHT22;9436;52.152;21.032;2022-11-11T05:41:16;9.30;99.90
18613;DHT22;9436;52.152;21.032;2022-11-11T05:43:43;9.30;99.90
18613;DHT22;9436;52.152;21.032;2022-11-11T05:46:10;9.30;99.90
18613;DHT22;9436;52.152;21.032;2022-11-11T05:48:37;9.30;99.90
18613;DHT22;9436;52.152;21.032;2022-11-11T05:51:26;9.30;99.90
18613;DHT22;9436;52.152;21.032;2022-11-11T05:53:56;9.40;99.90
18613;DHT22;9436;52.152;21.032;2022-11-11T05:56:24;9.50;99.90
18613;DHT22;9436;52.152;21.032;2022-11-11T05:58:51;9.50;99.90
18613;DHT22;9436;52.152;21.032;2022-11-11T06:01:18;9.50;99.90
18613;DHT22;9436;52.152;21.032;2022-11-11T06:03:45;9.50;99.90
18613;DHT22;9436;52.152;21.032;2022-11-11T06:06:13;9.50;99.90
18613;DHT22;9436;52.152;21.032;2022-11-11T06:08:41;9.60;99.90
18613;DHT22;9436;52.152;21.032;2022-11-11T06:11:08;9.50;99.90
18613;DHT22;9436;52.152;21.032;2022-11-11T06:13:35;9.60;99.90
18613;DHT22;9436;52.152;21.032;2022-11-11T06:16:03;9.60;99.90
18613;DHT22;9436;52.152;21.032;2022-11-11T06:18:30;9.60;99.90
18613;DHT22;9436;52.152;21.032;2022-11-11T06:20:58;9.60;99.90
18613;DHT22;9436;52.152;21.032;2022-11-11T06:23:27;9.60;99.90
18613;DHT22;9436;52.152;21.032;2022-11-11T06:25:56;9.60;99.90
18613;DHT22;9436;52.152;21.032;2022-11-11T06:28:39;9.70;99.90
18613;DHT22;9436;52.152;21.032;2022-11-11T06:31:06;9.70;99.90
18613;DHT22;9436;52.152;21.032;2022-11-11T06:33:33;9.60;99.90
18613;DHT22;9436;52.152;21.032;2022-11-11T06:36:01;9.60;99.90
18613;DHT22;9436;52.152;21.032;2022-11-11T06:38:28;9.70;99.90
18613;DHT22;9436;52.152;21.032;2022-11-11T06:40:57;9.70;99.90
18613;DHT22;9436;52.152;21.032;2022-11-11T06:43:24;9.80;99.90
18613;DHT22;9436;52.152;21.032;2022-11-11T06:45:51;9.80;99.90
18613;DHT22;9436;52.152;21.032;2022-11-11T06:48:19;9.80;99.90
18613;DHT22;9436;52.152;21.032;2022-11-11T06:50:47;9.90;99.90
18613;DHT22;9436;52.152;21.032;2022-11-11T06:53:15;9.90;99.90
18613;DHT22;9436;52.152;21.032;2022-11-11T06:55:42;9.90;99.90
18613;DHT22;9436;52.152;21.032;2022-11-11T06:58:12;10.10;99.90
18613;DHT22;9436;52.152;21.032;2022-11-11T07:00:41;10.10;99.90
18613;DHT22;9436;52.152;21.032;2022-11-11T07:03:10;10.10;99.90
18613;DHT22;9436;52.152;21.032;2022-11-11T07:05:38;10.10;99.90
18613;DHT22;9436;52.152;21.032;2022-11-11T07:08:06;10.10;99.90
18613;DHT22;9436;52.152;21.032;2022-11-11T07:10:35;10.10;99.90
18613;DHT22;9436;52.152;21.032;2022-11-11T07:13:04;10.20;99.90
18613;DHT22;9436;52.152;21.032;2022-11-11T07:15:32;10.20;99.90
18613;DHT22;9436;52.152;21.032;2022-11-11T07:18:00;10.20;99.90
18613;DHT22;9436;52.152;21.032;2022-11-11T07:20:27;10.10;99.90
18613;DHT22;9436;52.152;21.032;2022-11-11T07:22:55;10.10;99.90
18613;DHT22;9436;52.152;21.032;2022-11-11T07:25:22;10.20;99.90
18613;DHT22;9436;52.152;21.032;2022-11-11T07:27:49;10.20;99.90
18613;DHT22;9436;52.152;21.032;2022-11-11T07:30:17;10.30;99.90
18613;DHT22;9436;52.152;21.032;2022-11-11T07:32:46;10.30;99.90
18613;DHT22;9436;52.152;21.032;2022-11-11T07:35:14;10.40;99.90
18613;DHT22;9436;52.152;21.032;2022-11-11T07:37:42;10.30;99.90
18613;DHT22;9436;52.152;21.032;2022-11-11T07:40:11;10.20;99.90
18613;DHT22;9436;52.152;21.032;2022-11-11T07:42:39;10.30;99.90
18613;DHT22;9436;52.152;21.032;2022-11-11T07:45:07;10.30;99.90
18613;DHT22;9436;52.152;21.032;2022-11-11T07:47:35;10.40;99.90
18613;DHT22;9436;52.152;21.032;2022-11-11T07:50:05;10.40;99.90
18613;DHT22;9436;52.152;21.032;2022-11-11T07:52:32;10.50;99.90
18613;DHT22;9436;52.152;21.032;2022-11-11T07:55:01;10.50;99.90
18613;DHT22;9436;52.152;21.032;2022-11-11T07:57:29;10.60;99.90
18613;DHT22;9436;52.152;21.032;2022-11-11T07:59:56;10.60;99.90
18613;DHT22;9436;52.152;21.032;2022-11-11T08:02:23;10.50;99.90
18613;DHT22;9436;52.152;21.032;2022-11-11T08:04:50;10.50;99.90
18613;DHT22;9436;52.152;21.032;2022-11-11T08:07:18;10.60;99.90
18613;DHT22;9436;52.152;21.032;2022-11-11T08:09:45;10.70;99.90
18613;DHT22;9436;52.152;21.032;2022-11-11T08:12:12;10.70;99.90
18613;DHT22;9436;52.152;21.032;2022-11-11T08:14:57;10.80;99.90
18613;DHT22;9436;52.152;21.032;2022-11-11T08:17:24;10.80;99.90
18613;DHT22;9436;52.152;21.032;2022-11-11T08:19:51;10.80;99.90
18613;DHT22;9436;52.152;21.032;2022-11-11T08:22:19;10.80;99.90
18613;DHT22;9436;52.152;21.032;2022-11-11T08:24:46;10.90;99.90
18613;DHT22;9436;52.152;21.032;2022-11-11T08:27:13;10.90;99.90
18613;DHT22;9436;52.152;21.032;2022-11-11T08:29:40;11.00;99.90
18613;DHT22;9436;52.152;21.032;2022-11-11T08:32:07;11.00;99.90
18613;DHT22;9436;52.152;21.032;2022-11-11T08:34:34;11.00;99.90
18613;DHT22;9436;52.152;21.032;2022-11-11T08:37:01;11.00;99.90
18613;DHT22;9436;52.152;21.032;2022-11-11T08:39:30;11.20;99.90
18613;DHT22;9436;52.152;21.032;2022-11-11T08:41:57;11.20;99.90
18613;DHT22;9436;52.152;21.032;2022-11-11T08:44:24;11.20;99.90
18613;DHT22;9436;52.152;21.032;2022-11-11T08:46:51;11.30;99.90
18613;DHT22;9436;52.152;21.032;2022-11-11T08:49:17;11.30;99.90
18613;DHT22;9436;52.152;21.032;2022-11-11T08:51:44;11.40;99.90
18613;DHT22;9436;52.152;21.032;2022-11-11T08:54:12;11.40;99.90
18613;DHT22;9436;52.152;21.032;2022-11-11T08:56:40;11.50;99.90
18613;DHT22;9436;52.152;21.032;2022-11-11T08:59:08;11.50;99.90
18613;DHT22;9436;52.152;21.032;2022-11-11T09:01:36;11.50;99.90
18613;DHT22;9436;52.152;21.032;2022-11-11T09:04:03;11.60;99.90
18613;DHT22;9436;52.152;21.032;2022-11-11T09:06:31;11.70;99.90
18613;DHT22;9436;52.152;21.032;2022-11-11T09:08:58;11.70;99.90
18613;DHT22;9436;52.152;21.032;2022-11-11T09:11:25;11.80;99.90
18613;DHT22;9436;52.152;21.032;2022-11-11T09:13:54;11.80;99.90
18613;DHT22;9436;52.152;21.032;2022-11-11T09:16:21;11.90;99.90
18613;DHT22;9436;52.152;21.032;2022-11-11T09:18:48;12.00;99.90
18613;DHT22;9436;52.152;21.032;2022-11-11T09:21:15;11.90;99.90
18613;DHT22;9436;52.152;21.032;2022-11-11T09:23:42;12.00;99.90
18613;DHT22;9436;52.152;21.032;2022-11-11T09:26:09;12.00;99.90
18613;DHT22;9436;52.152;21.032;2022-11-11T09:28:36;12.00;99.90
18613;DHT22;9436;52.152;21.032;2022-11-11T09:31:05;12.10;99.90
18613;DHT22;9436;52.152;21.032;2022-11-11T09:33:32;12.00;99.90
18613;DHT22;9436;52.152;21.032;2022-11-11T09:35:59;12.10;99.90
18613;DHT22;9436;52.152;21.032;2022-11-11T09:38:26;12.20;99.90
18613;DHT22;9436;52.152;21.032;2022-11-11T09:41:03;12.20;99.90
18613;DHT22;9436;52.152;21.032;2022-11-11T09:43:39;12.30;99.90
18613;DHT22;9436;52.152;21.032;2022-11-11T09:49:28;12.30;99.90
18613;DHT22;9436;52.152;21.032;2022-11-11T09:52:02;12.40;99.90
18613;DHT22;9436;52.152;21.032;2022-11-11T09:54:34;12.40;99.90
18613;DHT22;9436;52.152;21.032;2022-11-11T09:57:11;12.40;99.90
18613;DHT22;9436;52.152;21.032;2022-11-11T09:59:44;12.40;99.90
18613;DHT22;9436;52.152;21.032;2022-11-11T10:02:27;12.40;99.90
18613;DHT22;9436;52.152;21.032;2022-11-11T10:04:59;12.40;99.90
18613;DHT22;9436;52.152;21.032;2022-11-11T10:07:34;12.40;99.90
18613;DHT22;9436;52.152;21.032;2022-11-11T10:10:08;12.40;99.90
18613;DHT22;9436;52.152;21.032;2022-11-11T10:12:43;12.40;99.90
18613;DHT22;9436;52.152;21.032;2022-11-11T10:15:13;12.40;99.90
18613;DHT22;9436;52.152;21.032;2022-11-11T10:17:50;12.40;99.90
18613;DHT22;9436;52.152;21.032;2022-11-11T10:20:21;12.40;99.90
18613;DHT22;9436;52.152;21.032;2022-11-11T10:22:53;12.40;99.90
18613;DHT22;9436;52.152;21.032;2022-11-11T10:25:25;12.30;99.90
18613;DHT22;9436;52.152;21.032;2022-11-11T10:27:55;12.30;99.90
18613;DHT22;9436;52.152;21.032;2022-11-11T10:30:24;12.40;99.90
18613;DHT22;9436;52.152;21.032;2022-11-11T10:32:57;12.40;99.90
18613;DHT22;9436;52.152;21.032;2022-11-11T10:35:27;12.50;99.90
18613;DHT22;9436;52.152;21.032;2022-11-11T10:38:02;12.40;99.90
18613;DHT22;9436;52.152;21.032;2022-11-11T10:40:40;12.50;99.90
18613;DHT22;9436;52.152;21.032;2022-11-11T10:43:24;12.50;99.90
18613;DHT22;9436;52.152;21.032;2022-11-11T10:45:58;12.50;99.90
18613;DHT22;9436;52.152;21.032;2022-11-11T10:48:35;12.50;99.90
18613;DHT22;9436;52.152;21.032;2022-11-11T10:51:06;12.50;99.90
18613;DHT22;9436;52.152;21.032;2022-11-11T10:53:37;12.50;99.90
18613;DHT22;9436;52.152;21.032;2022-11-11T10:56:14;12.50;99.90
18613;DHT22;9436;52.152;21.032;2022-11-11T10:58:46;12.50;99.90
18613;DHT22;9436;52.152;21.032;2022-11-11T11:01:19;12.50;99.90
18613;DHT22;9436;52.152;21.032;2022-11-11T11:03:54;12.50;99.90
18613;DHT22;9436;52.152;21.032;2022-11-11T11:06:24;12.50;99.90
18613;DHT22;9436;52.152;21.032;2022-11-11T11:08:56;12.60;99.90
18613;DHT22;9436;52.152;21.032;2022-11-11T11:11:29;12.60;99.90
18613;DHT22;9436;52.152;21.032;2022-11-11T11:13:59;12.60;99.90
18613;DHT22;9436;52.152;21.032;2022-11-11T11:16:31;12.70;99.90
18613;DHT22;9436;52.152;21.032;2022-11-11T11:19:16;12.70;99.90
18613;DHT22;9436;52.152;21.032;2022-11-11T11:21:48;12.70;99.90
18613;DHT22;9436;52.152;21.032;2022-11-11T11:24:20;12.80;99.90
18613;DHT22;9436;52.152;21.032;2022-11-11T11:26:49;12.70;99.90
18613;DHT22;9436;52.152;21.032;2022-11-11T11:29:24;12.70;99.90
18613;DHT22;9436;52.152;21.032;2022-11-11T11:31:53;12.70;99.90
18613;DHT22;9436;52.152;21.032;2022-11-11T11:34:43;12.70;99.90
18613;DHT22;9436;52.152;21.032;2022-11-11T11:37:10;12.70;99.90
18613;DHT22;9436;52.152;21.032;2022-11-11T11:39:38;12.70;99.90
18613;DHT22;9436;52.152;21.032;2022-11-11T11:42:06;12.70;99.90
18613;DHT22;9436;52.152;21.032;2022-11-11T11:44:34;12.70;99.90
18613;DHT22;9436;52.152;21.032;2022-11-11T11:47:13;12.70;99.90
18613;DHT22;9436;52.152;21.032;2022-11-11T11:49:58;12.80;99.90
18613;DHT22;9436;52.152;21.032;2022-11-11T11:52:34;12.80;99.90
18613;DHT22;9436;52.152;21.032;2022-11-11T11:55:09;12.80;99.90
18613;DHT22;9436;52.152;21.032;2022-11-11T11:57:46;12.80;99.90
18613;DHT22;9436;52.152;21.032;2022-11-11T12:00:19;12.80;99.90
18613;DHT22;9436;52.152;21.032;2022-11-11T12:03:06;12.70;99.90
18613;DHT22;9436;52.152;21.032;2022-11-11T12:05:39;12.70;99.90
18613;DHT22;9436;52.152;21.032;2022-11-11T12:08:28;12.70;99.90
18613;DHT22;9436;52.152;21.032;2022-11-11T12:11:03;12.70;99.90
18613;DHT22;9436;52.152;21.032;2022-11-11T12:13:40;12.70;99.90
18613;DHT22;9436;52.152;21.032;2022-11-11T12:16:23;12.70;99.90
18613;DHT22;9436;52.152;21.032;2022-11-11T12:19:11;12.60;99.90
18613;DHT22;9436;52.152;21.032;2022-11-11T12:21:57;12.60;99.90
18613;DHT22;9436;52.152;21.032;2022-11-11T12:24:36;12.60;99.90
18613;DHT22;9436;52.152;21.032;2022-11-11T12:27:13;12.60;99.90
18613;DHT22;9436;52.152;21.032;2022-11-11T12:29:52;12.70;99.90
18613;DHT22;9436;52.152;21.032;2022-11-11T12:32:38;12.70;99.90
18613;DHT22;9436;52.152;21.032;2022-11-11T12:35:25;12.80;99.90
18613;DHT22;9436;52.152;21.032;2022-11-11T12:38:04;12.80;99.90
18613;DHT22;9436;52.152;21.032;2022-11-11T12:40:39;12.80;99.90
18613;DHT22;9436;52.152;21.032;2022-11-11T12:43:17;12.90;99.90
18613;DHT22;9436;52.152;21.032;2022-11-11T12:45:48;12.90;99.90
18613;DHT22;9436;52.152;21.032;2022-11-11T12:48:32;12.90;99.90
18613;DHT22;9436;52.152;21.032;2022-11-11T12:51:11;12.90;99.90
18613;DHT22;9436;52.152;21.032;2022-11-11T12:53:46;12.90;99.90
18613;DHT22;9436;52.152;21.032;2022-11-11T12:56:23;12.90;99.90
18613;DHT22;9436;52.152;21.032;2022-11-11T12:58:55;12.90;99.90
18613;DHT22;9436;52.152;21.032;2022-11-11T13:01:30;12.80;99.90
18613;DHT22;9436;52.152;21.032;2022-11-11T13:07:20;12.70;99.90
18613;DHT22;9436;52.152;21.032;2022-11-11T13:10:01;12.80;99.90
18613;DHT22;9436;52.152;21.032;2022-11-11T13:12:34;12.80;99.90
18613;DHT22;9436;52.152;21.032;2022-11-11T13:15:13;12.80;99.90
18613;DHT22;9436;52.152;21.032;2022-11-11T13:17:41;12.90;99.90
18613;DHT22;9436;52.152;21.032;2022-11-11T13:20:16;12.90;99.90
18613;DHT22;9436;52.152;21.032;2022-11-11T13:22:45;12.90;99.90
18613;DHT22;9436;52.152;21.032;2022-11-11T13:25:17;12.90;99.90
18613;DHT22;9436;52.152;21.032;2022-11-11T13:27:49;12.90;99.90
18613;DHT22;9436;52.152;21.032;2022-11-11T13:30:37;12.80;99.90
18613;DHT22;9436;52.152;21.032;2022-11-11T13:33:09;12.90;99.90
18613;DHT22;9436;52.152;21.032;2022-11-11T13:35:41;12.80;99.90
18613;DHT22;9436;52.152;21.032;2022-11-11T13:38:12;12.90;99.90
18613;DHT22;9436;52.152;21.032;2022-11-11T13:40:51;12.90;99.90
18613;DHT22;9436;52.152;21.032;2022-11-11T13:43:21;12.80;99.90
18613;DHT22;9436;52.152;21.032;2022-11-11T13:45:51;12.80;99.90
18613;DHT22;9436;52.152;21.032;2022-11-11T13:48:22;12.80;99.90
18613;DHT22;9436;52.152;21.032;2022-11-11T13:50:50;12.70;99.90
18613;DHT22;9436;52.152;21.032;2022-11-11T13:53:26;12.70;99.90
18613;DHT22;9436;52.152;21.032;2022-11-11T13:56:00;12.70;99.90
18613;DHT22;9436;52.152;21.032;2022-11-11T13:58:30;12.70;99.90
18613;DHT22;9436;52.152;21.032;2022-11-11T14:01:00;12.60;99.90
18613;DHT22;9436;52.152;21.032;2022-11-11T14:03:35;12.60;99.90
18613;DHT22;9436;52.152;21.032;2022-11-11T14:06:34;12.60;99.90
18613;DHT22;9436;52.152;21.032;2022-11-11T14:09:03;12.60;99.90
18613;DHT22;9436;52.152;21.032;2022-11-11T14:11:33;12.60;99.90
18613;DHT22;9436;52.152;21.032;2022-11-11T14:17:12;12.50;99.90
18613;DHT22;9436;52.152;21.032;2022-11-11T14:19:40;12.50;99.90
18613;DHT22;9436;52.152;21.032;2022-11-11T14:22:31;12.40;99.90
18613;DHT22;9436;52.152;21.032;2022-11-11T14:25:17;12.30;99.90
18613;DHT22;9436;52.152;21.032;2022-11-11T14:27:47;12.20;99.90
18613;DHT22;9436;52.152;21.032;2022-11-11T14:30:35;12.20;99.90
18613;DHT22;9436;52.152;21.032;2022-11-11T14:33:09;12.10;99.90
18613;DHT22;9436;52.152;21.032;2022-11-11T14:35:43;12.20;99.90
18613;DHT22;9436;52.152;21.032;2022-11-11T14:38:31;12.00;99.90
18613;DHT22;9436;52.152;21.032;2022-11-11T14:47:31;12.10;99.90
18613;DHT22;9436;52.152;21.032;2022-11-11T14:49:59;12.10;99.90
18613;DHT22;9436;52.152;21.032;2022-11-11T14:52:33;12.10;99.90
18613;DHT22;9436;52.152;21.032;2022-11-11T14:55:10;12.00;99.90
18613;DHT22;9436;52.152;21.032;2022-11-11T14:57:39;12.00;99.90
18613;DHT22;9436;52.152;21.032;2022-11-11T15:00:13;12.00;99.90
18613;DHT22;9436;52.152;21.032;2022-11-11T15:02:47;11.90;99.90
18613;DHT22;9436;52.152;21.032;2022-11-11T15:05:19;11.90;99.90
18613;DHT22;9436;52.152;21.032;2022-11-11T15:07:58;12.00;99.90
18613;DHT22;9436;52.152;21.032;2022-11-11T15:13:49;11.90;99.90
18613;DHT22;9436;52.152;21.032;2022-11-11T15:16:29;11.90;99.90
18613;DHT22;9436;52.152;21.032;2022-11-11T15:19:12;11.90;99.90
18613;DHT22;9436;52.152;21.032;2022-11-11T15:21:48;11.90;99.90
18613;DHT22;9436;52.152;21.032;2022-11-11T15:24:27;11.90;99.90
18613;DHT22;9436;52.152;21.032;2022-11-11T15:27:04;11.80;99.90
18613;DHT22;9436;52.152;21.032;2022-11-11T15:29:49;11.80;99.90
18613;DHT22;9436;52.152;21.032;2022-11-11T15:32:24;11.80;99.90
18613;DHT22;9436;52.152;21.032;2022-11-11T15:35:02;11.80;99.90
18613;DHT22;9436;52.152;21.032;2022-11-11T15:37:31;11.70;99.90
18613;DHT22;9436;52.152;21.032;2022-11-11T15:39:58;11.70;99.90
18613;DHT22;9436;52.152;21.032;2022-11-11T15:42:29;11.80;99.90
18613;DHT22;9436;52.152;21.032;2022-11-11T15:45:00;11.70;99.90
18613;DHT22;9436;52.152;21.032;2022-11-11T15:47:29;11.70;99.90
18613;DHT22;9436;52.152;21.032;2022-11-11T15:50:03;11.70;99.90
18613;DHT22;9436;52.152;21.032;2022-11-11T15:52:31;11.60;99.90
18613;DHT22;9436;52.152;21.032;2022-11-11T15:55:00;11.60;99.90
18613;DHT22;9436;52.152;21.032;2022-11-11T15:57:30;11.50;99.90
18613;DHT22;9436;52.152;21.032;2022-11-11T15:59:58;11.60;99.90
18613;DHT22;9436;52.152;21.032;2022-11-11T16:02:27;11.60;99.90
18613;DHT22;9436;52.152;21.032;2022-11-11T16:04:57;11.50;99.90
18613;DHT22;9436;52.152;21.032;2022-11-11T16:07:29;11.50;99.90
18613;DHT22;9436;52.152;21.032;2022-11-11T16:09:59;11.50;99.90
18613;DHT22;9436;52.152;21.032;2022-11-11T16:12:35;11.50;99.90
18613;DHT22;9436;52.152;21.032;2022-11-11T16:15:07;11.50;99.90
18613;DHT22;9436;52.152;21.032;2022-11-11T16:17:38;11.60;99.90
18613;DHT22;9436;52.152;21.032;2022-11-11T16:20:12;11.60;99.90
18613;DHT22;9436;52.152;21.032;2022-11-11T16:22:42;11.60;99.90
18613;DHT22;9436;52.152;21.032;2022-11-11T16:25:13;11.60;99.90
18613;DHT22;9436;52.152;21.032;2022-11-11T16:27:43;11.60;99.90